Time;durP1;ratioP1;P1;durP2;ratioP2;P2;SDS_P1;SDS_P2;PMS_P1;PMS_P2;Temp;Humidity;BMP_temperature;BMP_pressure;BME280_temperature;BME280_humidity;BME280_pressure;Samples;Min_cycle;Max_cycle;Signal;HPM_P1;HPM_P2
2021/01/04 13:35:37;;;;;;;;;;;17.70;64.00;;;;;;5103796;27;20357;-42
2021/01/04 13:38:05;;;;;;;;;;;17.70;64.00;;;;;;5105367;28;19912;-43
2021/01/04 13:40:30;;;;;;;;;;;17.70;64.50;;;;;;5104746;28;20295;-42
2021/01/04 13:42:56;;;;;;;;;;;17.70;64.30;;;;;;5105261;28;19922;-41
2021/01/04 13:45:21;;;;;;;;;;;17.70;64.00;;;;;;5105560;28;20260;-42
2021/01/04 13:47:47;;;;;;;;;;;17.60;64.20;;;;;;5099853;28;19995;-43
2021/01/04 13:50:12;;;;;;;;;;;17.60;64.20;;;;;;5104943;28;19915;-42
2021/01/04 13:52:38;;;;;;;;;;;17.70;64.20;;;;;;5105999;28;19908;-42
2021/01/04 13:55:04;;;;;;;;;;;17.70;64.20;;;;;;5094091;28;19916;-40
2021/01/04 13:57:30;;;;;;;;;;;17.70;64.30;;;;;;5137680;27;19950;-42
2021/01/04 13:59:55;;;;;;;;;;;17.70;64.30;;;;;;5102099;28;20364;-42
2021/01/04 14:02:21;;;;;;;;;;;17.70;64.60;;;;;;5101658;28;20315;-40
2021/01/04 14:04:47;;;;;;;;;;;17.70;64.40;;;;;;5100541;28;19909;-39
2021/01/04 14:07:15;;;;;;;;;;;17.70;64.20;;;;;;5104774;28;20264;-40
2021/01/04 14:09:40;;;;;;;;;;;17.80;64.20;;;;;;5104860;28;19938;-41
2021/01/04 14:12:06;;;;;;;;;;;17.80;64.20;;;;;;5102378;28;19954;-40
2021/01/04 14:14:31;;;;;;;;;;;17.70;64.10;;;;;;5096730;28;20034;-40
2021/01/04 14:16:57;;;;;;;;;;;17.80;64.20;;;;;;5093400;28;19923;-40
2021/01/04 14:19:22;;;;;;;;;;;17.80;64.20;;;;;;5103676;28;20435;-40
2021/01/04 14:21:48;;;;;;;;;;;17.80;64.20;;;;;;5103291;28;19915;-38
2021/01/04 14:24:14;;;;;;;;;;;17.80;64.30;;;;;;5102489;28;20104;-40
2021/01/04 14:26:39;;;;;;;;;;;17.80;64.20;;;;;;5104059;28;20338;-38
2021/01/04 14:29:06;;;;;;;;;;;17.80;64.30;;;;;;5103655;28;20011;-39
2021/01/04 14:31:39;;;;;;;;;;;17.90;64.40;;;;;;5102305;28;19915;-41
2021/01/04 14:34:04;;;;;;;;;;;17.90;64.40;;;;;;5122256;27;19920;-39
2021/01/04 14:36:30;;;;;;;;;;;17.90;64.40;;;;;;5102384;28;19919;-39
2021/01/04 14:38:55;;;;;;;;;;;17.90;64.40;;;;;;5090546;28;19934;-39
2021/01/04 14:41:21;;;;;;;;;;;17.90;64.40;;;;;;5091281;28;19973;-40
2021/01/04 14:43:46;;;;;;;;;;;17.90;64.40;;;;;;5101631;28;19908;-40
2021/01/04 14:46:17;;;;;;;;;;;17.90;64.30;;;;;;5080643;28;19915;-39
2021/01/04 14:48:42;;;;;;;;;;;17.80;64.40;;;;;;5090237;28;19904;-38
2021/01/04 14:51:08;;;;;;;;;;;17.90;64.40;;;;;;5099456;28;20558;-39
2021/01/04 14:53:33;;;;;;;;;;;17.90;64.40;;;;;;5093407;28;19963;-40
2021/01/04 14:55:59;;;;;;;;;;;17.90;64.40;;;;;;5098724;28;19962;-40
2021/01/04 14:58:24;;;;;;;;;;;17.90;64.30;;;;;;5097394;28;19912;-41
2021/01/04 15:00:50;;;;;;;;;;;17.90;64.20;;;;;;5101816;28;20003;-40
2021/01/04 15:03:15;;;;;;;;;;;18.00;64.10;;;;;;5093372;28;19941;-41
2021/01/04 15:05:41;;;;;;;;;;;17.90;63.80;;;;;;5086626;28;19947;-40
2021/01/04 15:08:06;;;;;;;;;;;17.90;64.20;;;;;;5089945;28;20330;-41
2021/01/04 15:10:32;;;;;;;;;;;17.90;63.90;;;;;;5089229;28;19908;-43
2021/01/04 15:13:01;;;;;;;;;;;17.90;63.80;;;;;;5078009;28;19962;-41
2021/01/04 15:15:27;;;;;;;;;;;17.90;63.80;;;;;;5083103;28;19927;-42
2021/01/04 15:17:52;;;;;;;;;;;17.90;63.80;;;;;;5089186;28;19908;-41
2021/01/04 15:20:18;;;;;;;;;;;17.90;63.90;;;;;;5085803;28;19914;-40
2021/01/04 15:22:43;;;;;;;;;;;17.90;63.80;;;;;;5089165;28;19908;-42
2021/01/04 15:25:09;;;;;;;;;;;17.90;63.90;;;;;;5075678;28;19921;-40
2021/01/04 15:27:34;;;;;;;;;;;17.90;63.40;;;;;;5090203;28;19946;-42
2021/01/04 15:30:00;;;;;;;;;;;17.90;64.50;;;;;;5086267;28;20370;-42
2021/01/04 15:32:25;;;;;;;;;;;17.90;63.80;;;;;;5086712;28;19943;-41
2021/01/04 15:34:51;;;;;;;;;;;17.90;63.80;;;;;;5085949;28;19916;-42
2021/01/04 15:37:20;;;;;;;;;;;17.90;63.90;;;;;;5083497;28;19908;-42
2021/01/04 15:39:46;;;;;;;;;;;17.90;63.90;;;;;;5084813;28;19915;-39
2021/01/04 15:42:12;;;;;;;;;;;17.90;64.00;;;;;;5088225;28;19912;-42
2021/01/04 15:44:38;;;;;;;;;;;18.00;64.00;;;;;;5084945;28;19996;-42
2021/01/04 15:47:04;;;;;;;;;;;18.00;64.00;;;;;;5084939;28;19908;-48
2021/01/04 15:49:30;;;;;;;;;;;18.00;64.10;;;;;;5088776;28;19923;-40
2021/01/04 15:52:01;;;;;;;;;;;18.00;63.80;;;;;;5072024;28;20379;-40
2021/01/04 15:54:27;;;;;;;;;;;18.00;64.00;;;;;;5092465;28;19926;-40
2021/01/04 15:56:53;;;;;;;;;;;18.00;64.10;;;;;;5077910;28;19999;-42
2021/01/04 15:59:19;;;;;;;;;;;18.00;63.90;;;;;;5077641;28;19919;-41
2021/01/04 16:01:44;;;;;;;;;;;18.00;64.00;;;;;;5077120;28;19908;-40
2021/01/04 16:04:11;;;;;;;;;;;18.00;64.00;;;;;;5074528;28;20007;-51
2021/01/04 16:06:37;;;;;;;;;;;18.00;64.20;;;;;;5087938;28;20295;-39
2021/01/04 16:09:03;;;;;;;;;;;18.00;63.60;;;;;;5085428;28;19908;-40
2021/01/04 16:11:29;;;;;;;;;;;18.00;63.90;;;;;;5090717;28;19908;-41
2021/01/04 16:13:55;;;;;;;;;;;18.00;64.20;;;;;;5095198;28;20721;-50
2021/01/04 16:16:21;;;;;;;;;;;18.00;64.00;;;;;;5086767;28;19909;-41
2021/01/04 16:18:46;;;;;;;;;;;18.00;63.70;;;;;;5088697;28;20327;-40
2021/01/04 16:21:12;;;;;;;;;;;18.00;63.70;;;;;;5081989;28;19920;-44
2021/01/04 16:23:38;;;;;;;;;;;18.00;63.80;;;;;;5086843;28;19908;-40
2021/01/04 16:26:03;;;;;;;;;;;18.00;63.70;;;;;;5087988;28;20402;-39
2021/01/04 16:28:28;;;;;;;;;;;18.00;63.80;;;;;;5086626;28;19912;-41
2021/01/04 16:30:56;;;;;;;;;;;18.00;63.70;;;;;;5084258;28;19939;-52
2021/01/04 16:33:21;;;;;;;;;;;18.00;63.60;;;;;;5087428;28;19961;-41
2021/01/04 16:35:47;;;;;;;;;;;18.00;63.60;;;;;;5080024;28;19912;-40
2021/01/04 16:38:12;;;;;;;;;;;18.00;63.70;;;;;;5085672;28;19908;-41
2021/01/04 16:40:38;;;;;;;;;;;18.00;63.80;;;;;;5086309;28;20042;-42
2021/01/04 16:43:04;;;;;;;;;;;18.00;63.80;;;;;;5090767;28;19908;-40
2021/01/04 16:45:29;;;;;;;;;;;18.00;63.90;;;;;;5091037;28;19998;-40
2021/01/04 16:47:55;;;;;;;;;;;18.00;63.70;;;;;;5088912;28;19915;-39
2021/01/04 16:50:20;;;;;;;;;;;18.10;63.50;;;;;;5089881;28;20390;-39
2021/01/04 16:52:46;;;;;;;;;;;18.00;63.50;;;;;;5082791;28;19942;-39
2021/01/04 16:55:14;;;;;;;;;;;18.10;63.70;;;;;;5084213;28;19931;-40
2021/01/04 16:57:40;;;;;;;;;;;18.00;63.70;;;;;;5085182;28;19926;-39
2021/01/04 17:00:05;;;;;;;;;;;18.00;63.70;;;;;;5085190;28;19912;-39
2021/01/04 17:02:31;;;;;;;;;;;18.00;63.60;;;;;;5086626;28;19908;-41
2021/01/04 17:04:56;;;;;;;;;;;18.00;63.70;;;;;;5084281;28;19953;-39
2021/01/04 17:07:22;;;;;;;;;;;18.00;63.60;;;;;;5082681;28;20355;-39
2021/01/04 17:09:49;;;;;;;;;;;18.00;63.40;;;;;;5086687;28;19934;-45
2021/01/04 17:12:15;;;;;;;;;;;18.00;63.50;;;;;;5082774;28;20367;-40
2021/01/04 17:14:40;;;;;;;;;;;18.00;63.50;;;;;;5083838;28;19920;-39
2021/01/04 17:17:06;;;;;;;;;;;18.00;63.50;;;;;;5089046;28;19915;-39
2021/01/04 17:19:31;;;;;;;;;;;18.00;63.40;;;;;;5086464;28;19912;-40
2021/01/04 17:21:57;;;;;;;;;;;18.00;63.10;;;;;;5081258;28;19966;-42
2021/01/04 17:24:24;;;;;;;;;;;18.00;63.10;;;;;;5088243;28;20399;-39
2021/01/04 17:26:50;;;;;;;;;;;18.00;62.50;;;;;;5087305;28;19953;-39
2021/01/04 17:29:15;;;;;;;;;;;18.00;62.50;;;;;;5086621;28;19916;-42
2021/01/04 17:31:41;;;;;;;;;;;18.00;63.30;;;;;;5087309;28;19953;-41
2021/01/04 17:34:07;;;;;;;;;;;18.00;62.50;;;;;;5087076;28;19961;-40
2021/01/04 17:36:32;;;;;;;;;;;18.10;62.80;;;;;;5089433;28;20379;-42
2021/01/04 17:38:58;;;;;;;;;;;18.10;62.50;;;;;;5087181;28;19919;-45
2021/01/04 17:41:24;;;;;;;;;;;18.20;62.30;;;;;;5087210;28;19964;-41
2021/01/04 19:59:30;;;;;;;;;;;23.30;50.80;;;;;;4665705;27;10001387;-60
2021/01/04 20:01:56;;;;;;;;;;;22.60;53.40;;;;;;5014088;28;19932;-59
2021/01/04 20:04:22;;;;;;;;;;;21.90;54.80;;;;;;5004368;28;19945;-59
2021/01/04 20:06:47;;;;;;;;;;;21.50;55.80;;;;;;5012152;28;20321;-59
2021/01/04 20:09:13;;;;;;;;;;;21.20;56.50;;;;;;5022623;28;19926;-59
2021/01/04 20:11:39;;;;;;;;;;;21.00;56.90;;;;;;5003445;28;19973;-59
2021/01/04 20:14:04;;;;;;;;;;;20.90;57.00;;;;;;5021311;28;20336;-60
2021/01/04 20:16:30;;;;;;;;;;;20.80;57.20;;;;;;5020888;28;19917;-60
2021/01/04 20:18:56;;;;;;;;;;;20.70;58.40;;;;;;5021630;28;20453;-60
2021/01/04 20:21:25;;;;;;;;;;;20.80;58.30;;;;;;5025803;28;20491;-59
2021/01/04 20:23:52;;;;;;;;;;;20.90;57.70;;;;;;5021400;28;19936;-60
2021/01/04 20:26:22;;;;;;;;;;;21.00;57.50;;;;;;5021292;28;19975;-60
2021/01/04 20:28:47;;;;;;;;;;;21.10;57.20;;;;;;5020570;28;19921;-59
2021/01/04 20:31:13;;;;;;;;;;;21.10;57.30;;;;;;5022458;28;19913;-59
2021/01/04 20:33:38;;;;;;;;;;;21.10;56.90;;;;;;5023648;28;19920;-60
2021/01/04 20:36:04;;;;;;;;;;;21.10;57.60;;;;;;5019441;28;20381;-60
2021/01/04 20:38:30;;;;;;;;;;;21.00;56.90;;;;;;5022599;28;20579;-59
2021/01/04 20:40:55;;;;;;;;;;;20.90;57.00;;;;;;5005855;28;20071;-58
2021/01/04 20:43:21;;;;;;;;;;;20.80;57.30;;;;;;5022571;28;19920;-59
2021/01/04 20:45:46;;;;;;;;;;;20.70;57.50;;;;;;4673876;28;9999857;-61
2021/01/04 20:48:11;;;;;;;;;;;20.70;57.90;;;;;;5022137;28;19952;-60
2021/01/04 20:50:37;;;;;;;;;;;20.60;57.80;;;;;;5019235;28;19964;-59
2021/01/04 20:53:02;;;;;;;;;;;20.60;58.00;;;;;;5021635;28;19917;-59
2021/01/04 20:55:29;;;;;;;;;;;20.50;58.00;;;;;;5020774;28;20036;-59
2021/01/04 20:57:54;;;;;;;;;;;20.50;58.00;;;;;;5024180;28;19933;-59
2021/01/04 21:00:20;;;;;;;;;;;20.50;58.00;;;;;;5022801;28;19917;-60
2021/01/04 21:02:45;;;;;;;;;;;20.50;58.30;;;;;;5028513;28;19928;-64
2021/01/04 21:05:14;;;;;;;;;;;20.60;57.80;;;;;;5022039;28;19917;-61
2021/01/04 21:07:40;;;;;;;;;;;20.60;57.80;;;;;;5020386;28;19924;-60
2021/01/04 21:10:06;;;;;;;;;;;20.70;57.70;;;;;;5009483;28;19925;-59
2021/01/04 21:12:31;;;;;;;;;;;20.60;57.70;;;;;;5005831;28;20004;-61
2021/01/04 21:14:57;;;;;;;;;;;20.60;57.80;;;;;;5004937;28;19918;-61
2021/01/04 21:17:24;;;;;;;;;;;20.60;57.70;;;;;;5004625;28;19929;-62
